Time;durP1;ratioP1;P1;durP2;ratioP2;P2;SDS_P1;SDS_P2;PMS_P1;PMS_P2;Temp;Humidity;BMP_temperature;BMP_pressure;BME280_temperature;BME280_humidity;BME280_pressure;Samples;Min_cycle;Max_cycle;Signal;HPM_P1;HPM_P2
2023/09/04 00:01:53;;;;;;;7.38;3.00;;;;;;;22.88;70.09;99818.31;10540808;28;20032;-70
2023/09/04 00:06:54;;;;;;;9.65;2.78;;;;;;;22.71;70.42;99796.03;10542484;28;20488;-70
2023/09/04 00:11:55;;;;;;;7.25;3.10;;;;;;;22.89;70.94;99824.56;10541713;28;20481;-70
2023/09/04 00:16:55;;;;;;;11.63;2.95;;;;;;;22.72;71.28;99797.66;10541874;28;20040;-71
2023/09/04 00:21:56;;;;;;;8.40;2.90;;;;;;;22.87;71.35;99821.28;10540518;28;20043;-69
2023/09/04 00:26:57;;;;;;;13.27;2.95;;;;;;;22.83;71.75;99814.78;10541797;28;20043;-70
2023/09/04 00:31:58;;;;;;;9.35;2.72;;;;;;;22.91;71.99;99833.22;10541117;28;20040;-70
2023/09/04 00:36:59;;;;;;;7.68;3.42;;;;;;;22.71;72.02;99786.00;10522208;28;20043;-71
2023/09/04 00:41:59;;;;;;;6.15;2.72;;;;;;;22.93;72.77;99847.31;10540822;28;20040;-68
2023/09/04 00:47:00;;;;;;;7.55;2.60;;;;;;;22.92;72.65;99867.38;10540494;28;20035;-70
2023/09/04 00:52:01;;;;;;;12.10;3.28;;;;;;;22.88;72.49;99871.66;10540131;28;20051;-70
2023/09/04 00:57:04;;;;;;;6.25;2.95;;;;;;;22.81;72.75;99854.84;10540081;28;20043;-70
2023/09/04 01:02:04;;;;;;;6.38;2.78;;;;;;;22.38;72.74;99772.78;10540829;28;20071;-70
2023/09/04 01:07:05;;;;;;;8.93;2.85;;;;;;;22.23;72.76;99749.97;10539806;28;20079;-70
2023/09/04 01:12:14;;;;;;;13.98;3.03;;;;;;;22.60;73.60;99824.91;10539243;28;20047;-70
2023/09/04 01:17:16;;;;;;;10.02;3.33;;;;;;;22.85;72.82;99861.34;10539247;28;20066;-70
2023/09/04 01:22:17;;;;;;;7.88;3.10;;;;;;;22.52;73.19;99806.44;10538961;28;20047;-70
2023/09/04 01:27:32;;;;;;;9.10;2.80;;;;;;;22.75;74.47;99830.44;10538907;28;20039;-70
2023/09/04 01:32:38;;;;;;;9.93;2.80;;;;;;;22.86;74.46;99850.28;10539241;28;20040;-70
2023/09/04 01:37:40;;;;;;;5.90;2.65;;;;;;;22.67;73.97;99825.47;10537987;28;20032;-70
2023/09/04 01:42:41;;;;;;;10.68;3.30;;;;;;;22.53;74.28;99819.72;10538254;28;20044;-70
2023/09/04 01:47:42;;;;;;;9.50;3.05;;;;;;;22.92;74.37;99891.75;10520344;28;20032;-70
2023/09/04 01:52:42;;;;;;;15.02;3.05;;;;;;;22.42;74.90;99828.84;10536962;28;20059;-71
2023/09/04 01:57:43;;;;;;;16.85;3.65;;;;;;;22.77;75.36;99879.72;10521578;28;20040;-71
2023/09/04 02:02:44;;;;;;;8.73;2.92;;;;;;;22.89;75.65;99897.69;10537740;28;20117;-70
2023/09/04 02:07:45;;;;;;;28.02;3.47;;;;;;;22.75;76.14;99891.88;10518168;28;20060;-71
2023/09/04 02:12:45;;;;;;;14.15;3.30;;;;;;;22.60;76.88;99876.34;10537011;28;20059;-71
2023/09/04 02:17:46;;;;;;;24.45;3.28;;;;;;;22.81;77.36;99896.28;10538050;28;20092;-70
2023/09/04 02:22:47;;;;;;;11.68;3.50;;;;;;;22.79;77.78;99893.84;10537151;28;20061;-70
2023/09/04 02:27:48;;;;;;;8.13;3.10;;;;;;;22.77;78.35;99904.09;10543463;28;20048;-70
2023/09/04 02:32:49;;;;;;;11.93;3.00;;;;;;;22.76;79.49;99893.50;10545892;28;20058;-70
2023/09/04 02:37:49;;;;;;;17.15;3.10;;;;;;;22.67;80.60;99876.13;10545495;28;20032;-70
2023/09/04 02:42:50;;;;;;;18.83;3.38;;;;;;;22.74;81.55;99885.66;10544801;28;20089;-70
2023/09/04 02:47:51;;;;;;;12.43;3.63;;;;;;;22.44;82.10;99831.28;10545898;28;20596;-71
2023/09/04 02:52:51;;;;;;;8.75;3.53;;;;;;;22.79;83.50;99877.59;10544283;28;20040;-70
2023/09/04 02:57:53;;;;;;;12.45;4.30;;;;;;;22.62;84.63;99841.72;10545265;28;20042;-69
2023/09/04 03:02:53;;;;;;;12.20;4.43;;;;;;;22.72;85.47;99849.91;10526487;28;20040;-69
2023/09/04 03:07:54;;;;;;;29.88;4.85;;;;;;;22.76;85.92;99855.59;10544854;28;20071;-70
2023/09/04 03:12:55;;;;;;;12.40;4.45;;;;;;;22.67;86.41;99843.63;10543609;28;20070;-70
2023/09/04 03:17:55;;;;;;;18.08;4.38;;;;;;;22.84;86.07;99873.28;10543111;28;20032;-70
2023/09/04 03:22:56;;;;;;;12.52;4.45;;;;;;;22.58;85.39;99839.78;10543715;28;20051;-69
2023/09/04 03:27:57;;;;;;;6.88;3.70;;;;;;;22.81;84.22;99862.97;10543002;28;20046;-70
2023/09/04 03:32:58;;;;;;;17.33;3.63;;;;;;;23.09;83.21;99897.84;10542191;28;20048;-71
2023/09/04 03:37:59;;;;;;;10.30;3.28;;;;;;;23.19;82.05;99880.84;10540950;28;20059;-71
2023/09/04 03:43:00;;;;;;;7.47;2.75;;;;;;;23.29;80.61;99856.50;10543590;28;20049;-70
2023/09/04 03:48:01;;;;;;;18.98;3.28;;;;;;;23.34;79.69;99837.56;10542242;28;20032;-70
2023/09/04 03:53:02;;;;;;;9.40;2.67;;;;;;;23.34;78.59;99842.97;10542772;28;20040;-70
2023/09/04 03:58:04;;;;;;;12.57;2.60;;;;;;;23.50;78.07;99853.88;10541923;28;20111;-70
2023/09/04 04:03:05;;;;;;;20.98;3.30;;;;;;;23.53;77.35;99861.47;10541544;28;20051;-70
2023/09/04 04:08:06;;;;;;;31.02;3.97;;;;;;;23.62;76.89;99887.81;10540507;28;20066;-71
2023/09/04 04:13:07;;;;;;;9.57;2.72;;;;;;;23.67;76.41;99898.69;10541310;28;20032;-71
2023/09/04 04:18:09;;;;;;;16.30;3.40;;;;;;;23.71;76.01;99917.97;10541710;28;20093;-70
2023/09/04 04:23:10;;;;;;;24.07;4.07;;;;;;;23.76;75.83;99911.78;10540190;28;20469;-70
2023/09/04 04:28:11;;;;;;;22.52;4.30;;;;;;;23.75;75.95;99891.94;10540604;28;20040;-70
2023/09/04 04:33:12;;;;;;;13.65;3.63;;;;;;;23.35;75.53;99844.59;10540957;28;20044;-71
2023/09/04 04:38:13;;;;;;;10.18;3.20;;;;;;;23.48;75.37;99883.94;10541745;28;20051;-70
2023/09/04 04:43:14;;;;;;;21.67;3.35;;;;;;;23.75;75.43;99932.63;10539933;28;20036;-71
2023/09/04 04:48:14;;;;;;;9.85;3.33;;;;;;;23.24;74.56;99859.16;10539248;28;20232;-70
2023/09/04 04:53:15;;;;;;;16.85;3.70;;;;;;;23.30;74.57;99849.97;10521607;28;20170;-69
2023/09/04 04:58:16;;;;;;;22.27;3.88;;;;;;;23.28;73.70;99845.94;10539248;28;20040;-68
2023/09/04 05:03:17;;;;;;;33.17;4.32;;;;;;;23.73;72.97;99907.69;10539790;28;20032;-70
2023/09/04 05:08:18;;;;;;;20.85;3.88;;;;;;;23.77;72.83;99880.84;10540040;28;20036;-69
2023/09/04 05:13:19;;;;;;;17.83;3.50;;;;;;;23.71;72.03;99860.22;10538619;28;20040;-70
2023/09/04 05:18:19;;;;;;;33.45;4.22;;;;;;;23.68;71.86;99851.50;10538692;28;20048;-69
2023/09/04 05:23:20;;;;;;;20.27;3.70;;;;;;;23.52;71.18;99833.56;10539121;28;20043;-68
2023/09/04 05:28:21;;;;;;;36.60;4.68;;;;;;;23.77;71.07;99894.41;10539071;28;20050;-69
2023/09/04 05:33:22;;;;;;;30.05;4.75;;;;;;;23.85;70.91;99918.31;10538162;28;20072;-71
2023/09/04 05:38:23;;;;;;;24.17;3.75;;;;;;;24.03;70.28;99931.38;10537903;28;20503;-70
2023/09/04 05:43:24;;;;;;;26.38;4.22;;;;;;;24.14;69.67;99919.47;10538480;28;20120;-70
2023/09/04 05:48:25;;;;;;;27.05;3.85;;;;;;;24.03;68.98;99877.13;10538706;28;20040;-71
2023/09/04 05:53:25;;;;;;;33.55;3.97;;;;;;;24.51;67.90;99926.63;10537424;28;20517;-70
2023/09/04 05:58:26;;;;;;;17.00;3.35;;;;;;;24.55;67.43;99908.69;10537366;28;20043;-70
2023/09/04 06:03:27;;;;;;;16.40;3.17;;;;;;;24.29;67.21;99847.28;10537055;28;20499;-70
2023/09/04 06:08:29;;;;;;;18.60;3.53;;;;;;;24.74;66.38;99889.13;10538131;28;20046;-71
2023/09/04 06:13:31;;;;;;;36.33;4.13;;;;;;;24.80;65.98;99891.59;10537296;28;20044;-69
2023/09/04 06:18:32;;;;;;;19.42;3.25;;;;;;;24.90;66.09;99915.19;10538029;28;20044;-70
2023/09/04 06:23:32;;;;;;;18.23;3.80;;;;;;;24.37;65.87;99844.03;10537418;28;20526;-70
2023/09/04 06:28:33;;;;;;;31.02;3.42;;;;;;;24.12;66.16;99813.09;10536633;28;20032;-70
2023/09/04 06:33:37;;;;;;;24.75;3.85;;;;;;;25.00;65.49;99933.38;10537064;28;20032;-69
2023/09/04 06:38:37;;;;;;;34.13;3.65;;;;;;;24.96;65.25;99913.28;10519042;28;20044;-70
2023/09/04 06:43:38;;;;;;;24.15;3.13;;;;;;;25.10;65.28;99929.84;10536854;28;20036;-70
2023/09/04 06:48:39;;;;;;;15.02;3.70;;;;;;;25.13;64.31;99908.41;10536467;28;20074;-70
2023/09/04 06:53:40;;;;;;;25.00;3.70;;;;;;;25.21;63.92;99909.75;10537937;28;20122;-69
2023/09/04 06:58:40;;;;;;;29.27;3.35;;;;;;;25.33;63.87;99906.72;10536090;28;20043;-70
2023/09/04 07:03:41;;;;;;;19.10;2.90;;;;;;;25.34;63.18;99882.00;10535926;28;20094;-70
2023/09/04 07:08:42;;;;;;;23.67;3.33;;;;;;;25.49;62.59;99906.41;10536111;28;20043;-70
2023/09/04 07:13:43;;;;;;;27.45;3.15;;;;;;;25.57;62.38;99896.84;10542030;28;20051;-70
2023/09/04 07:18:43;;;;;;;37.78;3.30;;;;;;;25.41;61.24;99846.34;10543350;28;20119;-71
2023/09/04 07:23:46;;;;;;;27.50;3.55;;;;;;;25.61;60.73;99869.91;10543725;28;20040;-69
2023/09/04 07:28:46;;;;;;;34.78;3.90;;;;;;;26.01;59.96;99906.19;10543078;28;20044;-69
2023/09/04 07:33:48;;;;;;;23.02;3.45;;;;;;;26.11;59.20;99912.38;10543031;28;20040;-69
2023/09/04 07:38:49;;;;;;;35.47;3.33;;;;;;;25.95;58.53;99876.28;10543235;28;20093;-70
2023/09/04 07:43:50;;;;;;;33.92;4.05;;;;;;;26.19;58.22;99887.28;10543020;28;20039;-69
2023/09/04 07:48:51;;;;;;;31.23;3.50;;;;;;;26.39;57.24;99877.34;10542817;28;20552;-69
2023/09/04 07:53:51;;;;;;;34.22;4.30;;;;;;;26.47;56.72;99870.47;10542699;28;20044;-71
2023/09/04 07:58:52;;;;;;;27.75;3.80;;;;;;;26.10;56.34;99831.00;10543082;28;20040;-69
2023/09/04 08:03:53;;;;;;;45.70;4.15;;;;;;;26.50;55.78;99884.34;10541622;28;20066;-70
2023/09/04 08:08:53;;;;;;;36.05;4.55;;;;;;;26.24;55.61;99872.03;10541556;28;20418;-70
2023/09/04 08:13:54;;;;;;;33.38;4.82;;;;;;;26.18;55.73;99871.25;10541782;28;20044;-70
2023/09/04 08:18:55;;;;;;;38.15;5.53;;;;;;;25.84;56.02;99816.75;10541160;28;20089;-70
2023/09/04 08:23:56;;;;;;;44.20;4.88;;;;;;;26.22;55.65;99872.28;10540414;28;20043;-70
2023/09/04 08:28:56;;;;;;;51.65;4.82;;;;;;;26.24;55.24;99861.94;10541708;28;20039;-72
2023/09/04 08:33:57;;;;;;;34.97;4.55;;;;;;;25.88;55.19;99815.94;10541089;28;20046;-70
2023/09/04 08:38:58;;;;;;;40.63;4.72;;;;;;;25.85;54.87;99816.50;10540338;28;20153;-73
2023/09/04 08:43:59;;;;;;;95.45;7.07;;;;;;;26.21;54.72;99867.97;10540638;28;20048;-73
2023/09/04 08:49:01;;;;;;;59.10;5.90;;;;;;;26.20;54.54;99863.59;10540487;28;20043;-70
2023/09/04 08:54:04;;;;;;;38.47;4.88;;;;;;;26.29;54.09;99853.72;10539574;28;20040;-70
2023/09/04 08:59:05;;;;;;;58.97;6.77;;;;;;;26.51;53.69;99863.41;10539449;28;20112;-69
2023/09/04 09:04:06;;;;;;;67.35;5.53;;;;;;;26.69;53.11;99857.25;10522130;28;20117;-70
2023/09/04 09:09:08;;;;;;;52.83;5.30;;;;;;;26.99;52.14;99828.88;10539594;28;20035;-71
2023/09/04 09:14:12;;;;;;;49.58;6.32;;;;;;;27.10;51.64;99796.81;10540017;28;20048;-70
2023/09/04 09:19:14;;;;;;;61.22;7.03;;;;;;;27.43;51.72;99822.38;10539336;28;20071;-69
2023/09/04 09:24:17;;;;;;;42.22;5.85;;;;;;;27.65;52.31;99827.25;10539381;28;20059;-72
2023/09/04 09:29:18;;;;;;;55.65;5.50;;;;;;;27.82;51.95;99825.94;10538698;28;20039;-70
2023/09/04 09:34:19;;;;;;;63.03;6.30;;;;;;;27.90;51.52;99828.03;10520462;28;20491;-69
2023/09/04 09:39:21;;;;;;;63.88;6.72;;;;;;;28.14;50.96;99825.19;10538003;28;20040;-70
2023/09/04 09:44:22;;;;;;;46.90;6.07;;;;;;;28.26;51.28;99832.94;10538928;28;20039;-68
2023/09/04 09:49:23;;;;;;;65.07;6.63;;;;;;;27.97;51.29;99799.25;10538745;28;20036;-70
2023/09/04 09:54:41;;;;;;;62.60;5.90;;;;;;;28.06;51.43;99784.91;10537962;28;20446;-71
2023/09/04 09:59:47;;;;;;;63.33;6.10;;;;;;;28.28;51.23;99797.94;10537995;28;20040;-69
2023/09/04 10:04:48;;;;;;;68.25;6.80;;;;;;;28.39;51.51;99827.53;10537479;28;20055;-70
2023/09/04 10:09:59;;;;;;;53.05;5.80;;;;;;;28.06;51.54;99783.00;10538191;28;20048;-70
2023/09/04 10:15:01;;;;;;;58.55;5.93;;;;;;;28.49;51.26;99818.38;10519042;28;20036;-70
2023/09/04 10:20:05;;;;;;;60.35;6.32;;;;;;;28.40;51.40;99836.53;10537197;28;20123;-72
2023/09/04 10:25:20;;;;;;;66.40;6.30;;;;;;;28.24;51.81;99852.38;10537767;28;20491;-72
2023/09/04 10:30:26;;;;;;;60.53;6.93;;;;;;;28.33;51.89;99822.41;10518822;28;20488;-70
2023/09/04 10:35:27;;;;;;;54.72;7.03;;;;;;;28.50;51.64;99808.25;10518566;28;20040;-69
2023/09/04 10:40:29;;;;;;;46.25;5.80;;;;;;;28.90;50.84;99793.03;10536452;28;20491;-70
2023/09/04 10:45:30;;;;;;;75.85;6.70;;;;;;;29.26;50.54;99804.06;10537495;28;20039;-69
2023/09/04 10:50:39;;;;;;;72.38;7.03;;;;;;;28.95;50.40;99775.69;10545565;28;20502;-71
2023/09/04 10:55:40;;;;;;;60.70;6.28;;;;;;;29.34;49.70;99783.38;10545159;28;20067;-69
2023/09/04 11:00:41;;;;;;;64.50;7.03;;;;;;;29.68;49.09;99766.50;10544121;28;20105;-70
2023/09/04 11:06:07;;;;;;;88.82;8.88;;;;;;;29.87;48.04;99773.75;10544774;28;20066;-71
2023/09/04 11:11:08;;;;;;;88.47;8.35;;;;;;;29.92;48.26;99785.38;10543818;28;20051;-69
2023/09/04 11:16:09;;;;;;;71.53;7.07;;;;;;;29.63;47.11;99732.97;10544130;28;20039;-72
2023/09/04 11:21:10;;;;;;;79.97;7.90;;;;;;;29.98;47.40;99788.81;10543918;28;20054;-69
2023/09/04 11:26:11;;;;;;;66.63;7.25;;;;;;;30.03;46.95;99781.28;10543551;28;20032;-69
2023/09/04 11:31:12;;;;;;;62.35;6.68;;;;;;;30.00;46.17;99787.38;10543010;28;20492;-71
2023/09/04 11:36:13;;;;;;;99.13;8.30;;;;;;;30.19;46.49;99806.34;10542883;28;20123;-69
2023/09/04 11:41:19;;;;;;;64.72;6.72;;;;;;;29.88;46.76;99792.59;10541609;28;20188;-69
2023/09/04 11:46:20;;;;;;;69.63;7.13;;;;;;;29.86;46.83;99792.09;10542570;28;20044;-70
2023/09/04 11:51:21;;;;;;;65.68;6.85;;;;;;;29.80;46.12;99766.78;10512311;28;20046;-67
2023/09/04 11:56:21;;;;;;;74.40;8.00;;;;;;;29.93;46.63;99775.22;10522662;28;20060;-69
2023/09/04 12:01:22;;;;;;;51.38;6.15;;;;;;;29.77;46.34;99800.25;10517015;28;20054;-70
2023/09/04 12:06:28;;;;;;;65.00;6.25;;;;;;;29.79;46.33;99803.47;10540316;28;20063;-70
2023/09/04 12:11:29;;;;;;;43.97;5.93;;;;;;;29.59;46.23;99787.50;10542945;28;20055;-70
2023/09/04 12:16:30;;;;;;;53.25;6.30;;;;;;;29.57;46.72;99784.25;10541303;28;20051;-69
2023/09/04 12:21:32;;;;;;;56.00;8.55;;;;;;;29.82;46.58;99806.72;10541818;28;20047;-69
2023/09/04 12:26:33;;;;;;;70.70;6.78;;;;;;;29.38;46.44;99759.78;10536486;28;20062;-74
2023/09/04 12:31:34;;;;;;;51.90;6.72;;;;;;;29.42;46.58;99752.56;10502274;28;20135;-73
2023/09/04 12:36:35;;;;;;;52.58;5.90;;;;;;;29.66;46.19;99784.34;10496692;28;20131;-72
2023/09/04 12:41:36;;;;;;;63.35;6.80;;;;;;;29.43;46.17;99788.94;10539293;28;20083;-73
2023/09/04 12:46:37;;;;;;;58.95;7.30;;;;;;;28.98;47.21;99740.34;10538450;28;20488;-70
2023/09/04 12:51:38;;;;;;;55.38;6.07;;;;;;;28.88;47.26;99730.44;10540243;28;20040;-71
2023/09/04 12:56:39;;;;;;;66.10;6.90;;;;;;;28.54;47.21;99680.84;10538778;28;20047;-69
2023/09/04 13:01:39;;;;;;;69.03;6.97;;;;;;;29.30;47.17;99768.69;10539858;28;20446;-68
2023/09/04 13:06:40;;;;;;;84.22;7.75;;;;;;;29.53;46.72;99795.00;10521156;28;20056;-68
2023/09/04 13:11:41;;;;;;;58.97;6.25;;;;;;;29.06;46.86;99734.19;10570090;28;20035;-71
2023/09/04 13:16:41;;;;;;;65.47;6.00;;;;;;;29.18;47.42;99779.38;10581864;28;20039;-69
2023/09/04 13:21:43;;;;;;;75.07;8.23;;;;;;;28.96;47.90;99785.50;10573349;28;20059;-71
2023/09/04 13:26:44;;;;;;;72.53;7.80;;;;;;;29.17;47.89;99802.34;10539060;28;20047;-70
2023/09/04 13:31:44;;;;;;;71.22;7.40;;;;;;;29.04;47.93;99796.56;10538448;28;20533;-69
2023/09/04 13:36:45;;;;;;;57.97;7.43;;;;;;;28.65;48.08;99742.38;10537822;28;20392;-69
2023/09/04 13:41:46;;;;;;;66.32;7.25;;;;;;;28.60;48.68;99756.97;10520330;28;20075;-71
2023/09/04 13:46:47;;;;;;;86.82;8.80;;;;;;;28.70;48.78;99793.41;10537539;28;20096;-72
2023/09/04 13:51:47;;;;;;;59.03;6.88;;;;;;;28.59;49.07;99771.72;10538807;28;20554;-73
2023/09/04 13:56:50;;;;;;;78.90;7.28;;;;;;;28.51;49.32;99797.03;10537898;28;20410;-71
2023/09/04 14:01:50;;;;;;;67.30;7.30;;;;;;;28.43;49.34;99801.25;10519821;28;20080;-72
2023/09/04 14:06:51;;;;;;;87.15;8.55;;;;;;;28.37;49.75;99810.63;10536982;28;20464;-71
2023/09/04 14:11:52;;;;;;;79.20;8.45;;;;;;;28.36;49.71;99821.81;10537224;28;20054;-74
2023/09/04 14:16:53;;;;;;;71.38;8.27;;;;;;;28.27;49.62;99813.53;10537077;28;20138;-72
2023/09/04 14:21:54;;;;;;;93.18;10.40;;;;;;;27.97;49.66;99792.97;10522840;28;20407;-71
2023/09/04 14:26:55;;;;;;;79.82;9.85;;;;;;;28.00;49.74;99825.16;10545617;28;20056;-71
2023/09/04 14:31:56;;;;;;;92.90;10.40;;;;;;;27.66;49.79;99778.94;10545490;28;20083;-72
2023/09/04 14:36:57;;;;;;;117.78;12.65;;;;;;;27.88;50.08;99844.72;10545967;28;20412;-71
2023/09/04 14:41:57;;;;;;;79.65;10.52;;;;;;;27.62;50.23;99813.41;10546054;28;20058;-71
2023/09/04 14:46:58;;;;;;;112.65;12.75;;;;;;;27.69;50.07;99833.75;10545417;28;20032;-68
2023/09/04 14:51:59;;;;;;;121.63;13.13;;;;;;;27.12;50.47;99761.91;10545137;28;20044;-69
2023/09/04 14:57:02;;;;;;;114.70;12.25;;;;;;;27.11;50.94;99773.13;10545030;28;20040;-70
2023/09/04 15:02:03;;;;;;;100.78;11.65;;;;;;;27.34;51.03;99835.00;10544809;28;20040;-71
2023/09/04 15:07:04;;;;;;;97.43;10.95;;;;;;;27.19;51.18;99819.69;10544679;28;20055;-70
2023/09/04 15:12:06;;;;;;;87.78;9.27;;;;;;;27.25;51.47;99834.88;10543925;28;20089;-69
2023/09/04 15:17:06;;;;;;;97.22;10.23;;;;;;;27.02;51.53;99797.50;10544304;28;20068;-69
2023/09/04 15:22:07;;;;;;;91.88;10.80;;;;;;;27.08;52.01;99832.56;10544164;28;20472;-70
2023/09/04 15:27:08;;;;;;;82.15;9.57;;;;;;;27.00;52.06;99835.13;10544593;28;20047;-69
2023/09/04 15:32:09;;;;;;;85.25;10.25;;;;;;;26.82;52.10;99826.59;10542519;28;20071;-69
2023/09/04 15:37:09;;;;;;;84.35;10.50;;;;;;;27.05;52.23;99876.78;10543362;28;20032;-69
2023/09/04 15:42:12;;;;;;;68.40;9.95;;;;;;;26.91;52.08;99880.47;10543185;28;20105;-69
2023/09/04 15:47:13;;;;;;;78.43;10.87;;;;;;;26.88;52.68;99903.66;10543444;28;20082;-69
2023/09/04 15:52:14;;;;;;;84.40;9.88;;;;;;;26.83;52.72;99907.25;10542354;28;20713;-69
2023/09/04 15:57:15;;;;;;;48.30;6.97;;;;;;;26.82;55.12;99902.06;10542056;28;20068;-70
2023/09/04 16:02:15;;;;;;;41.63;5.30;;;;;;;26.92;56.31;99914.78;10542346;28;20051;-69
2023/09/04 16:07:16;;;;;;;54.10;6.72;;;;;;;26.74;57.02;99891.78;10542882;28;20048;-69
2023/09/04 16:12:17;;;;;;;28.17;6.03;;;;;;;26.88;57.37;99932.81;10542641;28;20089;-69
2023/09/04 16:17:18;;;;;;;53.47;5.97;;;;;;;26.83;57.61;99936.41;10523275;28;20040;-69
2023/09/04 16:22:20;;;;;;;42.92;5.50;;;;;;;26.78;57.69;99939.19;10542199;28;20036;-70
2023/09/04 16:27:20;;;;;;;48.88;5.53;;;;;;;26.61;58.00;99936.84;10541636;28;20036;-71
2023/09/04 16:32:21;;;;;;;25.70;5.07;;;;;;;26.61;58.23;99956.75;10541268;28;20044;-70
2023/09/04 16:37:23;;;;;;;44.80;5.80;;;;;;;26.22;58.30;99913.13;10540477;28;20114;-70
2023/09/04 16:42:24;;;;;;;34.97;5.30;;;;;;;26.42;58.71;99961.22;10540535;28;20047;-70
2023/09/04 16:47:25;;;;;;;35.13;5.47;;;;;;;26.25;59.10;99955.31;10538022;28;20048;-69
2023/09/04 16:52:27;;;;;;;38.95;5.72;;;;;;;26.04;59.18;99958.16;10540701;28;20051;-69
2023/09/04 16:57:27;;;;;;;26.08;4.72;;;;;;;26.11;59.47;99987.78;10540192;28;20075;-71
2023/09/04 17:02:28;;;;;;;22.75;5.10;;;;;;;26.03;59.78;99982.94;10539461;28;20123;-71
2023/09/04 17:07:29;;;;;;;24.65;4.65;;;;;;;25.85;60.09;99984.38;10538885;28;20052;-71
2023/09/04 17:12:30;;;;;;;26.30;5.03;;;;;;;25.92;59.89;100015.63;10540680;28;20044;-70
2023/09/04 17:17:30;;;;;;;55.35;11.48;;;;;;;25.77;57.97;100012.13;10538894;28;20036;-70
2023/09/04 17:22:32;;;;;;;51.35;10.45;;;;;;;25.63;58.68;100022.75;10539203;28;20040;-70
2023/09/04 17:27:33;;;;;;;30.60;5.35;;;;;;;25.28;60.24;99975.53;10538503;28;20087;-69
2023/09/04 17:32:34;;;;;;;38.45;5.38;;;;;;;25.41;61.24;100007.56;10538622;28;20047;-70
2023/09/04 17:37:35;;;;;;;42.08;5.20;;;;;;;25.12;61.38;99968.44;10538685;28;20036;-71
2023/09/04 17:42:37;;;;;;;41.47;4.75;;;;;;;25.23;62.04;99989.13;10537850;28;20056;-69
2023/09/04 17:47:38;;;;;;;22.45;4.30;;;;;;;24.93;62.36;99944.53;10538393;28;20035;-70
2023/09/04 17:52:38;;;;;;;27.30;3.47;;;;;;;25.17;62.91;99996.47;10538517;28;20043;-70
2023/09/04 17:57:39;;;;;;;19.88;3.90;;;;;;;25.06;62.98;99992.88;10537809;28;20044;-70
2023/09/04 18:02:40;;;;;;;27.98;5.97;;;;;;;24.99;62.67;100000.50;10537989;28;20044;-68
2023/09/04 18:07:41;;;;;;;38.33;6.25;;;;;;;24.92;62.43;99999.13;10538246;28;20408;-68
2023/09/04 18:12:42;;;;;;;20.17;4.88;;;;;;;24.77;63.42;99995.34;10537199;28;20499;-69
2023/09/04 18:17:43;;;;;;;12.77;3.35;;;;;;;24.73;64.60;100013.25;10537656;28;20054;-68
2023/09/04 18:22:46;;;;;;;19.63;3.35;;;;;;;24.66;65.13;100014.63;10537399;28;20055;-68
2023/09/04 18:27:49;;;;;;;21.50;6.05;;;;;;;24.30;64.81;99958.31;10537629;28;20048;-69
2023/09/04 18:32:49;;;;;;;22.67;6.40;;;;;;;24.47;64.39;100001.56;10537488;28;20412;-68
2023/09/04 18:37:51;;;;;;;16.02;4.57;;;;;;;23.99;65.28;99943.03;10518927;28;20036;-68
2023/09/04 18:42:51;;;;;;;23.25;5.82;;;;;;;23.95;65.47;99959.03;10536989;28;20038;-68
2023/09/04 18:47:52;;;;;;;29.85;8.43;;;;;;;23.92;64.63;99967.69;10536175;28;20128;-68
2023/09/04 18:52:53;;;;;;;22.38;6.35;;;;;;;24.06;65.08;100000.59;10534782;28;20051;-68
2023/09/04 18:57:54;;;;;;;17.45;5.75;;;;;;;23.88;65.71;99975.53;10536725;28;20491;-69
2023/09/04 19:02:54;;;;;;;21.85;6.78;;;;;;;23.89;65.35;99981.78;10537037;28;20484;-68
2023/09/04 19:07:55;;;;;;;23.30;7.25;;;;;;;23.80;65.67;99986.09;10538980;28;20117;-68
2023/09/04 19:12:56;;;;;;;23.65;7.55;;;;;;;23.68;65.62;99980.84;10544795;28;20496;-68
2023/09/04 19:17:57;;;;;;;30.90;8.55;;;;;;;23.55;66.01;99992.19;10542936;28;20044;-69
2023/09/04 19:22:58;;;;;;;24.88;8.20;;;;;;;23.45;66.09;99998.31;10544340;28;20047;-68
2023/09/04 19:27:59;;;;;;;22.33;7.97;;;;;;;23.33;66.65;99989.56;10542442;28;20036;-68
2023/09/04 19:33:00;;;;;;;20.95;7.53;;;;;;;23.24;66.85;99973.81;10542918;28;20118;-68
2023/09/04 19:38:01;;;;;;;20.52;8.13;;;;;;;23.18;67.23;99985.72;10543117;28;20192;-69
2023/09/04 19:43:02;;;;;;;24.88;8.00;;;;;;;22.94;67.21;99954.59;10543397;28;20509;-68
2023/09/04 19:48:03;;;;;;;18.88;8.15;;;;;;;23.08;67.22;99993.75;10543090;28;20043;-68
2023/09/04 19:53:04;;;;;;;21.85;9.40;;;;;;;22.87;66.94;99959.41;10543016;28;20046;-68
2023/09/04 19:58:05;;;;;;;23.25;9.65;;;;;;;22.92;67.22;99978.41;10541147;28;20063;-68
2023/09/04 20:03:06;;;;;;;20.23;8.50;;;;;;;22.80;67.07;99975.88;10523602;28;20039;-70
2023/09/04 20:08:07;;;;;;;22.38;9.23;;;;;;;22.32;67.51;99909.94;10541582;28;20036;-68
2023/09/04 20:13:08;;;;;;;21.02;8.68;;;;;;;22.71;67.77;100005.31;10524034;28;20047;-68
2023/09/04 20:18:09;;;;;;;21.40;8.35;;;;;;;22.65;67.92;99995.50;10540289;28;20036;-68
2023/09/04 20:23:09;;;;;;;26.17;8.77;;;;;;;22.59;68.13;99990.31;10522916;28;20044;-69
2023/09/04 20:28:10;;;;;;;21.92;8.57;;;;;;;22.43;68.03;99976.59;10524091;28;20092;-68
2023/09/04 20:33:11;;;;;;;24.05;8.90;;;;;;;22.29;68.33;99976.22;10541334;28;20047;-68
2023/09/04 20:38:11;;;;;;;17.80;8.40;;;;;;;22.21;68.21;99970.44;10541156;28;20043;-69
2023/09/04 20:43:12;;;;;;;18.70;8.15;;;;;;;21.89;68.81;99944.06;10540859;28;20048;-68
2023/09/04 20:48:14;;;;;;;16.05;7.85;;;;;;;22.05;68.91;99977.53;10540576;28;20073;-68
2023/09/04 20:53:16;;;;;;;33.08;8.05;;;;;;;22.11;69.27;99992.75;10539914;28;20092;-68
2023/09/04 20:58:16;;;;;;;14.45;7.07;;;;;;;21.94;69.67;99978.47;10539923;28;20046;-69
2023/09/04 21:03:17;;;;;;;19.92;7.07;;;;;;;22.03;69.93;99995.88;10539936;28;20040;-69
2023/09/04 23:26:06;;;;;;;4.45;2.60;;;;;;;21.74;74.75;100004.16;10543867;28;20141;-70
2023/09/04 23:31:07;;;;;;;7.65;2.53;;;;;;;21.53;74.75;99967.13;10544235;28;20048;-69
2023/09/04 23:36:24;;;;;;;7.05;2.85;;;;;;;21.70;74.91;99989.53;10543624;28;20122;-69
2023/09/04 23:46:44;;;;;;;10.10;2.80;;;;;;;21.58;74.84;99959.91;10542531;28;20036;-69
2023/09/04 23:51:44;;;;;;;8.80;2.40;;;;;;;21.63;74.57;99961.88;10542900;28;20043;-69
2023/09/04 23:56:46;;;;;;;6.32;2.60;;;;;;;21.89;74.73;100000.84;10542820;28;20142;-70
